Time;durP1;ratioP1;P1;durP2;ratioP2;P2;SDS_P1;SDS_P2;PMS_P1;PMS_P2;Temp;Humidity;BMP_temperature;BMP_pressure;BME280_temperature;BME280_humidity;BME280_pressure;Samples;Min_cycle;Max_cycle;Signal;HPM_P1;HPM_P2
2023/02/21 02:15:20;;;;;;;10.57;4.77;;;8.70;99.90;;;;;;4915830;29;20482;-70
2023/02/21 02:18:05;;;;;;;6.10;4.80;;;8.60;99.90;;;;;;4913062;29;20490;-70
2023/02/21 02:20:58;;;;;;;5.33;4.17;;;8.50;99.90;;;;;;4905826;29;20458;-71
2023/02/21 02:24:11;;;;;;;8.33;4.33;;;8.40;99.90;;;;;;4905775;29;20487;-69
2023/02/21 02:27:11;;;;;;;7.03;4.67;;;8.30;99.90;;;;;;4920660;28;20462;-71
2023/02/21 02:29:55;;;;;;;6.93;4.47;;;8.40;99.90;;;;;;4909402;29;20494;-71
2023/02/21 02:32:49;;;;;;;7.70;4.40;;;8.40;99.90;;;;;;4934619;28;20978;-71
2023/02/21 02:35:21;;;;;;;4.60;3.80;;;8.50;99.90;;;;;;4919231;28;20474;-70
2023/02/21 02:38:11;;;;;;;6.30;4.27;;;8.40;99.90;;;;;;4918668;29;20468;-71
2023/02/21 02:40:46;;;;;;;7.30;4.07;;;8.30;99.90;;;;;;4922465;28;20545;-71
2023/02/21 02:43:32;;;;;;;6.37;4.37;;;8.40;99.90;;;;;;4935178;28;20487;-70
2023/02/21 02:46:08;;;;;;;5.13;3.60;;;8.30;99.90;;;;;;4924786;29;20624;-71
2023/02/21 02:48:51;;;;;;;7.33;4.60;;;8.30;99.90;;;;;;4920466;29;20462;-70
2023/02/21 02:51:17;;;;;;;8.43;5.37;;;8.30;99.90;;;;;;4917446;29;21049;-71
2023/02/21 02:53:44;;;;;;;5.67;3.60;;;8.20;99.90;;;;;;4913228;29;20471;-70
2023/02/21 02:56:13;;;;;;;7.83;4.47;;;8.20;99.90;;;;;;4903242;29;20848;-71
2023/02/21 02:58:46;;;;;;;7.93;3.63;;;8.20;99.90;;;;;;4907484;29;20230;-71
2023/02/21 03:01:53;;;;;;;5.00;3.63;;;8.20;99.90;;;;;;4900442;29;20523;-70
2023/02/21 03:04:28;;;;;;;6.40;3.70;;;8.00;99.90;;;;;;4861036;29;20498;-71
2023/02/21 03:07:33;;;;;;;6.30;4.37;;;8.10;99.90;;;;;;4924398;29;20456;-71
2023/02/21 03:10:33;;;;;;;6.20;4.10;;;8.10;99.90;;;;;;4919570;29;20502;-70
2023/02/21 03:13:05;;;;;;;5.83;4.00;;;8.10;99.90;;;;;;4932658;29;20465;-71
2023/02/21 03:15:39;;;;;;;5.47;3.97;;;8.10;99.90;;;;;;4926737;29;20453;-70
2023/02/21 03:18:15;;;;;;;11.53;4.20;;;8.10;99.90;;;;;;4921942;29;20462;-71
2023/02/21 03:20:43;;;;;;;6.43;4.20;;;8.10;99.90;;;;;;4933292;28;20816;-70
2023/02/21 03:23:12;;;;;;;7.70;4.63;;;8.00;99.90;;;;;;4928461;28;20470;-71
2023/02/21 03:25:40;;;;;;;12.33;4.50;;;8.00;99.90;;;;;;4916298;29;20982;-71
2023/02/21 03:28:08;;;;;;;7.90;5.07;;;7.90;99.90;;;;;;4898261;29;20842;-71
2023/02/21 03:30:41;;;;;;;7.20;4.53;;;7.90;99.90;;;;;;4944237;28;20495;-71
2023/02/21 03:33:07;;;;;;;4.80;4.30;;;8.00;99.90;;;;;;4914585;29;20459;-71
2023/02/21 03:35:33;;;;;;;9.10;4.33;;;7.80;99.90;;;;;;4940497;28;20463;-71
2023/02/21 03:37:59;;;;;;;5.40;3.97;;;7.70;99.90;;;;;;4915509;29;20686;-71
2023/02/21 03:40:28;;;;;;;6.07;4.03;;;7.80;99.90;;;;;;4919455;29;22039;-71
2023/02/21 03:42:57;;;;;;;6.20;4.47;;;7.90;99.90;;;;;;4933722;28;21027;-72
2023/02/21 03:45:24;;;;;;;7.97;3.90;;;7.90;99.90;;;;;;4921467;29;20473;-70
2023/02/21 03:48:02;;;;;;;7.17;4.50;;;7.90;99.90;;;;;;4914723;29;20541;-68
2023/02/21 03:50:28;;;;;;;7.17;4.90;;;7.90;99.90;;;;;;4921926;28;20446;-70
2023/02/21 03:52:54;;;;;;;6.27;4.80;;;7.80;99.90;;;;;;4914419;29;20547;-70
2023/02/21 03:55:21;;;;;;;7.20;4.67;;;7.80;99.90;;;;;;4937481;28;20225;-70
2023/02/21 03:57:47;;;;;;;7.77;4.50;;;7.70;99.90;;;;;;4932668;29;20749;-70
2023/02/21 04:00:13;;;;;;;5.90;4.03;;;7.80;99.90;;;;;;4921661;28;20542;-70
2023/02/21 04:02:43;;;;;;;5.23;4.23;;;7.70;99.90;;;;;;4924803;29;20253;-71
2023/02/21 04:05:16;;;;;;;6.60;4.93;;;7.60;99.90;;;;;;4919359;29;20478;-71
2023/02/21 04:07:42;;;;;;;7.23;5.10;;;7.60;99.90;;;;;;4917205;29;20477;-70
2023/02/21 04:10:08;;;;;;;19.77;5.43;;;7.50;99.90;;;;;;4920810;29;20234;-71
2023/02/21 04:12:42;;;;;;;7.67;4.60;;;7.60;99.90;;;;;;4937704;28;20317;-70
2023/02/21 04:15:10;;;;;;;7.40;4.73;;;7.60;99.90;;;;;;4920178;28;20642;-71
2023/02/21 04:17:36;;;;;;;7.07;4.90;;;7.60;99.90;;;;;;4934925;28;20537;-71
2023/02/21 04:20:03;;;;;;;8.00;4.40;;;7.40;99.90;;;;;;4920500;29;20477;-71
2023/02/21 04:22:32;;;;;;;7.20;3.93;;;7.20;99.90;;;;;;4928378;28;20516;-71
2023/02/21 04:24:58;;;;;;;5.10;3.63;;;7.30;99.90;;;;;;4923551;29;20870;-70
2023/02/21 04:27:25;;;;;;;6.03;4.97;;;7.40;99.90;;;;;;4899955;29;20219;-71
2023/02/21 04:29:54;;;;;;;5.57;4.37;;;7.40;99.90;;;;;;4939806;28;20526;-70
2023/02/21 04:32:20;;;;;;;6.80;4.40;;;7.40;99.90;;;;;;4903753;29;20466;-70
2023/02/21 04:34:45;;;;;;;8.30;5.27;;;7.40;99.90;;;;;;4941613;28;20560;-70
2023/02/21 04:37:12;;;;;;;11.27;4.90;;;7.40;99.90;;;;;;4908693;29;20278;-70
2023/02/21 04:39:37;;;;;;;6.90;4.83;;;7.40;99.90;;;;;;4928493;28;20458;-71
2023/02/21 04:42:03;;;;;;;6.53;4.67;;;7.40;99.90;;;;;;4924230;29;20553;-70
2023/02/21 04:44:29;;;;;;;6.13;4.67;;;7.50;99.90;;;;;;4923425;29;20301;-70
2023/02/21 04:46:55;;;;;;;6.87;4.80;;;7.50;99.90;;;;;;4908490;29;20554;-71
2023/02/21 04:49:23;;;;;;;7.27;4.30;;;7.50;99.90;;;;;;4922285;28;20231;-70
2023/02/21 04:51:49;;;;;;;10.50;5.17;;;7.40;99.90;;;;;;4923073;29;20248;-70
2023/02/21 04:54:15;;;;;;;7.47;5.10;;;7.40;99.90;;;;;;4922782;28;20474;-69
2023/02/21 04:56:40;;;;;;;6.87;4.80;;;7.40;99.90;;;;;;4948835;28;20230;-70
2023/02/21 04:59:06;;;;;;;6.97;4.80;;;7.40;99.90;;;;;;4921626;28;20605;-69
2023/02/21 05:01:32;;;;;;;6.73;5.17;;;7.40;99.90;;;;;;4921409;29;20717;-69
2023/02/21 05:03:58;;;;;;;6.47;4.53;;;7.40;99.90;;;;;;4916509;29;20718;-70
2023/02/21 05:06:26;;;;;;;6.73;4.33;;;7.40;99.90;;;;;;4938198;28;20227;-69
2023/02/21 05:08:52;;;;;;;8.67;5.17;;;7.40;99.90;;;;;;4918171;28;20491;-70
2023/02/21 05:11:19;;;;;;;7.13;5.00;;;7.40;99.90;;;;;;4915623;28;20586;-70
2023/02/21 05:13:45;;;;;;;6.63;4.63;;;7.40;99.90;;;;;;4917921;28;20310;-69
2023/02/21 05:16:11;;;;;;;10.40;5.80;;;7.40;99.90;;;;;;4939159;28;20493;-70
2023/02/21 05:18:37;;;;;;;9.70;5.17;;;7.30;99.90;;;;;;4902005;29;20553;-70
2023/02/21 05:21:06;;;;;;;7.43;4.90;;;7.40;99.90;;;;;;4921543;29;20223;-70
2023/02/21 05:23:33;;;;;;;6.73;5.53;;;7.30;99.90;;;;;;4917690;29;20479;-71
2023/02/21 05:26:04;;;;;;;9.17;5.17;;;7.30;99.90;;;;;;4916458;29;20488;-72
2023/02/21 05:28:30;;;;;;;7.00;5.50;;;7.30;99.90;;;;;;4914710;29;20470;-71
2023/02/21 05:30:56;;;;;;;7.87;5.47;;;7.30;99.90;;;;;;4914473;29;20476;-70
2023/02/21 05:33:22;;;;;;;11.97;6.20;;;7.30;99.90;;;;;;4935312;28;20230;-69
2023/02/21 05:35:49;;;;;;;8.73;4.67;;;7.30;99.90;;;;;;4919508;29;20480;-70
2023/02/21 05:38:16;;;;;;;7.03;4.83;;;7.30;99.90;;;;;;4921286;28;20480;-70
2023/02/21 05:40:42;;;;;;;10.07;5.20;;;7.30;99.90;;;;;;4924915;29;20481;-69
2023/02/21 05:43:08;;;;;;;8.87;5.33;;;7.30;99.90;;;;;;4919507;29;21043;-68
2023/02/21 05:45:33;;;;;;;10.23;5.23;;;7.30;99.90;;;;;;4923581;29;20222;-71
2023/02/21 05:48:01;;;;;;;11.43;5.00;;;7.30;99.90;;;;;;4920238;29;20259;-70
2023/02/21 05:50:28;;;;;;;8.00;6.00;;;7.20;99.90;;;;;;4919346;29;20247;-69
2023/02/21 05:52:54;;;;;;;4.67;4.20;;;7.20;99.90;;;;;;4908136;29;21003;-69
2023/02/21 05:55:20;;;;;;;9.37;5.30;;;7.20;99.90;;;;;;4926421;28;20513;-71
2023/02/21 05:57:46;;;;;;;8.60;5.97;;;7.20;99.90;;;;;;4926270;29;20938;-70
2023/02/21 06:00:38;;;;;;;7.43;5.80;;;7.20;99.90;;;;;;4926298;28;20673;-71
2023/02/21 06:03:03;;;;;;;9.10;5.60;;;7.10;99.90;;;;;;4937773;28;20241;-69
2023/02/21 06:05:29;;;;;;;9.97;5.97;;;7.00;99.90;;;;;;4926160;28;20475;-68
2023/02/21 06:07:54;;;;;;;6.87;5.17;;;7.00;99.90;;;;;;4914207;29;20254;-70
2023/02/21 06:10:20;;;;;;;8.13;5.23;;;7.10;99.90;;;;;;4945582;28;20274;-71
2023/02/21 06:12:46;;;;;;;9.20;5.80;;;7.20;99.90;;;;;;4925758;29;20228;-70
2023/02/21 06:15:12;;;;;;;12.47;5.50;;;7.10;99.90;;;;;;4918379;28;20230;-70
2023/02/21 06:17:38;;;;;;;10.43;6.30;;;7.10;99.90;;;;;;4908839;29;20227;-70
2023/02/21 06:20:05;;;;;;;11.90;6.27;;;7.10;99.90;;;;;;4924241;29;20230;-71
2023/02/21 06:22:31;;;;;;;7.60;4.87;;;7.00;99.90;;;;;;4930397;29;20475;-70
2023/02/21 06:24:56;;;;;;;10.17;5.27;;;7.00;99.90;;;;;;4922441;28;20464;-71
2023/02/21 06:27:22;;;;;;;10.50;5.83;;;7.10;99.90;;;;;;4927228;29;20583;-70
2023/02/21 06:29:48;;;;;;;9.33;6.20;;;7.10;99.90;;;;;;4922193;28;20235;-70
2023/02/21 06:32:16;;;;;;;9.00;6.80;;;7.20;99.90;;;;;;4920839;28;20620;-71
2023/02/21 06:34:43;;;;;;;10.63;6.27;;;7.00;99.90;;;;;;4927168;29;20247;-71
2023/02/21 06:37:09;;;;;;;15.50;9.13;;;6.90;99.90;;;;;;4922130;29;20465;-70
2023/02/21 06:39:34;;;;;;;12.23;8.10;;;6.90;99.90;;;;;;4944474;28;20540;-70
2023/02/21 06:42:00;;;;;;;11.60;7.63;;;6.90;99.90;;;;;;4918112;29;20230;-70
2023/02/21 06:44:26;;;;;;;13.47;7.03;;;6.90;99.90;;;;;;4936242;28;20219;-71
2023/02/21 06:46:53;;;;;;;8.80;6.40;;;6.90;99.90;;;;;;4921041;29;20222;-70
2023/02/21 06:49:20;;;;;;;8.40;5.10;;;6.90;99.90;;;;;;4934264;28;20306;-71
2023/02/21 06:51:45;;;;;;;8.20;5.77;;;6.90;99.90;;;;;;4924278;28;20874;-71
2023/02/21 06:54:12;;;;;;;8.53;6.00;;;6.80;99.90;;;;;;4928564;28;20498;-68
2023/02/21 06:56:37;;;;;;;22.80;11.03;;;6.80;99.90;;;;;;4937705;28;20255;-70
2023/02/21 06:59:03;;;;;;;44.07;25.60;;;6.70;99.90;;;;;;4910501;29;20500;-69
2023/02/21 07:01:29;;;;;;;72.20;38.80;;;6.80;99.90;;;;;;4930427;28;20266;-70
2023/02/21 07:03:57;;;;;;;84.30;43.93;;;6.70;99.90;;;;;;4919860;28;20890;-71
2023/02/21 07:06:24;;;;;;;118.47;56.73;;;6.70;99.90;;;;;;4918915;28;20296;-70
2023/02/21 07:08:49;;;;;;;93.33;44.97;;;6.70;99.90;;;;;;4919330;29;20471;-71
2023/02/21 07:11:17;;;;;;;89.33;46.37;;;6.70;99.90;;;;;;4926883;28;21094;-70
2023/02/21 07:13:49;;;;;;;120.93;59.20;;;6.70;99.90;;;;;;4950402;28;20242;-71
2023/02/21 07:16:16;;;;;;;130.90;65.30;;;6.80;99.90;;;;;;4919529;28;20479;-70
2023/02/21 07:18:43;;;;;;;96.83;46.73;;;6.80;99.90;;;;;;4922640;28;20596;-70
2023/02/21 07:21:10;;;;;;;49.00;26.10;;;6.80;99.90;;;;;;4918276;29;20475;-70
2023/02/21 07:23:35;;;;;;;35.67;20.50;;;6.80;99.90;;;;;;4921334;28;20569;-70
2023/02/21 07:26:01;;;;;;;27.03;14.63;;;6.80;99.90;;;;;;4923071;29;21006;-70
2023/02/21 07:28:27;;;;;;;22.20;12.83;;;6.80;99.90;;;;;;4911836;28;20235;-70
2023/02/21 07:30:52;;;;;;;19.17;11.60;;;6.90;99.90;;;;;;4936717;28;20223;-70
2023/02/21 07:33:18;;;;;;;23.00;11.03;;;6.90;99.90;;;;;;4944958;28;20260;-70
2023/02/21 07:35:45;;;;;;;17.00;9.40;;;6.90;99.90;;;;;;4913990;29;20316;-70
2023/02/21 07:38:22;;;;;;;16.63;9.40;;;7.00;99.90;;;;;;4922096;28;20709;-70
2023/02/21 07:40:48;;;;;;;15.60;8.53;;;7.00;99.90;;;;;;4916047;28;20477;-71
2023/02/21 07:43:15;;;;;;;13.57;8.57;;;7.00;99.90;;;;;;4916549;29;20487;-71
2023/02/21 07:45:40;;;;;;;12.73;7.40;;;7.00;99.90;;;;;;4927980;28;20610;-71
2023/02/21 07:48:06;;;;;;;11.43;7.53;;;7.10;99.90;;;;;;4913089;29;20554;-71
2023/02/21 07:50:32;;;;;;;17.53;7.57;;;7.10;99.90;;;;;;4909109;29;20307;-71
2023/02/21 07:52:58;;;;;;;10.83;7.03;;;7.10;99.90;;;;;;4920192;28;20227;-71
2023/02/21 07:55:24;;;;;;;10.23;6.90;;;7.20;99.90;;;;;;4919814;28;20241;-70
2023/02/21 07:57:50;;;;;;;12.83;7.47;;;7.20;99.90;;;;;;4919813;29;20478;-72
2023/02/21 08:00:16;;;;;;;10.57;6.67;;;7.20;99.90;;;;;;4918324;28;20491;-72
2023/02/21 08:02:47;;;;;;;10.03;6.83;;;7.30;99.90;;;;;;4915489;29;20238;-70
2023/02/21 08:05:14;;;;;;;11.90;6.77;;;7.30;99.90;;;;;;4912051;29;20478;-70
2023/02/21 08:07:40;;;;;;;11.73;6.77;;;7.40;99.90;;;;;;4933426;28;20526;-69
2023/02/21 08:10:06;;;;;;;10.10;6.20;;;7.50;99.90;;;;;;4916722;28;20506;-69
2023/02/21 08:12:31;;;;;;;9.83;7.23;;;7.60;99.90;;;;;;4917547;28;20223;-71
2023/02/21 08:14:57;;;;;;;13.93;7.90;;;7.60;99.90;;;;;;4926057;29;20228;-71
2023/02/21 08:17:23;;;;;;;11.57;7.70;;;7.70;99.90;;;;;;4910499;28;20247;-70
2023/02/21 08:19:48;;;;;;;12.27;7.40;;;7.80;99.90;;;;;;4917065;29;20228;-71
2023/02/21 08:22:14;;;;;;;11.30;7.17;;;7.90;99.90;;;;;;4903602;28;20220;-71
2023/02/21 08:24:40;;;;;;;13.67;8.20;;;7.90;99.90;;;;;;4920996;28;20230;-70
2023/02/21 08:27:05;;;;;;;12.40;7.80;;;7.90;99.90;;;;;;4917636;28;20216;-70
2023/02/21 08:29:31;;;;;;;10.97;7.00;;;8.00;99.90;;;;;;4931324;28;20322;-71
2023/02/21 08:31:57;;;;;;;12.53;7.50;;;8.10;99.90;;;;;;4922884;29;20219;-71
2023/02/21 08:34:23;;;;;;;15.40;7.83;;;8.20;99.90;;;;;;4912088;28;20241;-71
2023/02/21 08:36:49;;;;;;;11.60;7.10;;;8.30;99.90;;;;;;4909980;29;20363;-70
2023/02/21 08:39:15;;;;;;;11.10;7.60;;;8.30;99.90;;;;;;4913637;28;20943;-71
2023/02/21 08:41:44;;;;;;;18.70;9.77;;;8.40;99.90;;;;;;4918177;29;20507;-70
2023/02/21 08:44:12;;;;;;;12.63;8.70;;;8.60;99.90;;;;;;4920129;28;20769;-72
2023/02/21 08:46:40;;;;;;;13.63;8.20;;;8.70;99.90;;;;;;4916829;28;20470;-71
2023/02/21 08:49:07;;;;;;;10.83;8.00;;;8.70;99.90;;;;;;4940113;28;20483;-69
2023/02/21 08:51:33;;;;;;;18.00;8.37;;;8.80;99.90;;;;;;4916810;29;20464;-71
2023/02/21 08:53:59;;;;;;;12.30;8.40;;;8.80;99.90;;;;;;4913668;29;21011;-71
2023/02/21 08:56:26;;;;;;;10.80;7.90;;;8.90;99.90;;;;;;4938662;28;20310;-71
2023/02/21 08:58:53;;;;;;;15.67;8.83;;;9.00;99.90;;;;;;4918067;28;20487;-70
2023/02/21 09:01:20;;;;;;;14.50;7.53;;;9.10;99.90;;;;;;4914565;28;20475;-71
2023/02/21 09:03:45;;;;;;;13.40;7.43;;;9.20;99.90;;;;;;4925067;29;21058;-71
2023/02/21 09:06:12;;;;;;;13.70;8.30;;;9.50;99.90;;;;;;4927078;28;20502;-72
2023/02/21 09:08:39;;;;;;;19.87;12.13;;;9.60;99.90;;;;;;4924205;28;20265;-71
2023/02/21 09:11:06;;;;;;;22.93;16.00;;;9.80;99.90;;;;;;4916897;29;20476;-71
2023/02/21 09:13:32;;;;;;;17.87;10.93;;;10.00;99.90;;;;;;4917103;28;21049;-71
2023/02/21 09:15:59;;;;;;;16.40;10.10;;;10.00;99.90;;;;;;4917134;28;20471;-71
2023/02/21 09:18:26;;;;;;;15.83;10.10;;;10.10;99.90;;;;;;4918627;28;20475;-71
2023/02/21 09:20:54;;;;;;;12.10;8.43;;;10.00;99.90;;;;;;4921494;28;20468;-71
2023/02/21 09:23:28;;;;;;;17.57;8.33;;;10.10;99.90;;;;;;4920597;28;20544;-72
2023/02/21 09:25:53;;;;;;;13.00;8.07;;;10.10;99.90;;;;;;4931389;28;20482;-72
2023/02/21 09:28:19;;;;;;;12.50;8.03;;;10.10;99.90;;;;;;4916427;28;20475;-71
2023/02/21 09:30:46;;;;;;;12.60;8.53;;;10.20;99.90;;;;;;4917278;29;20279;-71
2023/02/21 09:33:12;;;;;;;16.30;8.50;;;10.30;99.90;;;;;;4923381;28;20478;-69
2023/02/21 09:35:38;;;;;;;14.30;9.33;;;10.60;99.90;;;;;;4915484;29;20455;-71
2023/02/21 09:38:06;;;;;;;17.57;9.67;;;10.60;99.90;;;;;;4916519;29;20528;-70
2023/02/21 09:40:43;;;;;;;12.00;7.70;;;10.70;99.90;;;;;;4933014;28;20231;-71
2023/02/21 09:43:27;;;;;;;12.10;8.00;;;10.70;99.90;;;;;;4917167;29;20565;-72
2023/02/21 09:45:55;;;;;;;13.07;8.10;;;10.80;99.90;;;;;;4945315;28;20537;-71
2023/02/21 09:48:22;;;;;;;10.57;7.47;;;10.90;99.90;;;;;;4923233;28;20475;-71
2023/02/21 09:50:52;;;;;;;12.63;7.60;;;10.90;99.90;;;;;;4902035;29;20560;-70
2023/02/21 09:53:26;;;;;;;9.60;6.90;;;11.00;99.90;;;;;;4934931;28;20542;-72
2023/02/21 09:55:56;;;;;;;11.77;7.50;;;11.20;99.90;;;;;;4918264;28;21020;-71
2023/02/21 09:58:22;;;;;;;7.20;6.00;;;11.30;99.90;;;;;;4935568;28;20531;-71
2023/02/21 10:00:48;;;;;;;12.47;8.50;;;11.40;99.90;;;;;;4912908;29;20464;-71
2023/02/21 10:03:25;;;;;;;15.77;12.03;;;11.50;99.90;;;;;;4917377;28;20589;-71
2023/02/21 10:06:15;;;;;;;17.27;13.10;;;11.60;99.90;;;;;;4955123;28;20749;-71
2023/02/21 10:09:07;;;;;;;18.27;12.37;;;11.60;99.90;;;;;;4920911;29;20467;-71
2023/02/21 10:11:57;;;;;;;15.73;10.40;;;11.90;99.90;;;;;;4936966;28;20463;-71
2023/02/21 10:14:36;;;;;;;14.43;8.20;;;12.20;99.90;;;;;;4919157;28;20474;-71
2023/02/21 10:17:15;;;;;;;13.13;8.30;;;12.40;99.90;;;;;;4910623;29;20468;-70
2023/02/21 10:19:43;;;;;;;9.77;7.67;;;12.50;99.90;;;;;;4916335;28;21060;-69
2023/02/21 10:22:18;;;;;;;10.10;6.70;;;12.70;99.90;;;;;;4918436;28;20471;-68
2023/02/21 10:24:44;;;;;;;11.97;8.33;;;12.70;99.90;;;;;;4919643;28;21063;-71
2023/02/21 10:27:25;;;;;;;18.93;10.00;;;12.70;99.90;;;;;;4911927;28;20538;-72
2023/02/21 10:30:04;;;;;;;14.90;9.73;;;12.90;99.90;;;;;;4936260;28;20467;-72
2023/02/21 10:32:31;;;;;;;10.80;7.80;;;13.00;99.90;;;;;;4907372;29;21093;-72
2023/02/21 10:34:58;;;;;;;13.87;8.10;;;13.10;99.90;;;;;;4907199;29;20453;-72
2023/02/21 10:37:45;;;;;;;12.67;8.23;;;13.10;99.90;;;;;;4920306;28;20518;-70
2023/02/21 10:40:36;;;;;;;12.00;8.07;;;13.50;99.90;;;;;;4894799;28;20479;-72
2023/02/21 10:43:19;;;;;;;12.17;7.67;;;13.60;99.90;;;;;;4934705;28;20539;-72
2023/02/21 10:45:45;;;;;;;9.00;6.73;;;13.70;99.90;;;;;;4922216;28;21113;-72
2023/02/21 10:48:11;;;;;;;16.33;8.07;;;13.70;99.90;;;;;;4909658;28;20548;-72
2023/02/21 10:50:40;;;;;;;10.20;6.93;;;13.90;99.90;;;;;;4918151;29;20220;-72
2023/02/21 10:53:06;;;;;;;8.20;6.30;;;14.10;99.90;;;;;;4916573;28;21084;-71
2023/02/21 10:55:32;;;;;;;12.40;7.20;;;14.20;99.90;;;;;;4917487;28;20460;-72
2023/02/21 10:58:05;;;;;;;11.07;7.50;;;14.30;99.90;;;;;;4912341;29;20626;-74
2023/02/21 11:00:35;;;;;;;7.47;6.67;;;14.30;99.90;;;;;;4938597;28;20224;-72
2023/02/21 11:03:17;;;;;;;12.00;7.60;;;14.30;99.90;;;;;;4897810;29;21031;-72
2023/02/21 11:05:51;;;;;;;9.70;7.37;;;14.60;99.90;;;;;;4903442;29;20563;-72
2023/02/21 11:08:34;;;;;;;9.60;6.80;;;14.70;99.90;;;;;;4917281;28;21006;-72
2023/02/21 11:10:59;;;;;;;7.50;6.43;;;14.80;99.90;;;;;;4937866;28;20494;-72
2023/02/21 11:13:26;;;;;;;8.87;6.63;;;14.70;99.90;;;;;;4925538;28;20470;-72
2023/02/21 11:16:10;;;;;;;11.00;5.97;;;14.70;99.90;;;;;;4921730;29;20718;-72
2023/02/21 11:18:36;;;;;;;7.40;6.00;;;15.00;99.90;;;;;;4904900;29;20719;-73
2023/02/21 11:21:18;;;;;;;9.60;5.60;;;15.20;99.90;;;;;;4896412;29;20571;-73
2023/02/21 11:23:57;;;;;;;8.00;6.00;;;15.20;99.90;;;;;;4921974;28;20985;-72
2023/02/21 11:26:23;;;;;;;8.93;5.30;;;15.30;99.90;;;;;;4906315;29;20479;-72
2023/02/21 11:28:51;;;;;;;8.50;5.90;;;15.10;99.90;;;;;;4923812;29;20474;-72
2023/02/21 11:31:32;;;;;;;8.30;5.70;;;15.30;99.90;;;;;;4924085;28;20531;-72
2023/02/21 11:34:00;;;;;;;7.40;5.30;;;15.60;99.90;;;;;;4926314;29;20460;-72
2023/02/21 11:36:35;;;;;;;8.17;5.70;;;15.80;99.90;;;;;;4939942;28;20518;-73
2023/02/21 11:39:15;;;;;;;7.83;5.10;;;15.50;99.90;;;;;;4906486;29;20480;-72
2023/02/21 11:41:49;;;;;;;8.40;5.50;;;15.60;99.90;;;;;;4942497;28;20454;-72
2023/02/21 11:44:39;;;;;;;7.63;4.70;;;15.50;99.90;;;;;;4901995;29;20486;-71
2023/02/21 11:47:16;;;;;;;6.27;5.20;;;15.50;99.90;;;;;;4915525;29;20570;-73
2023/02/21 11:49:52;;;;;;;10.03;5.90;;;15.40;99.90;;;;;;4911282;29;21031;-71
2023/02/21 11:52:34;;;;;;;9.83;5.60;;;15.40;99.90;;;;;;4919431;29;21022;-72
2023/02/21 11:54:59;;;;;;;10.03;6.80;;;15.60;99.90;;;;;;4936011;28;20605;-72
2023/02/21 11:57:25;;;;;;;8.80;5.53;;;15.50;99.90;;;;;;4948991;28;20503;-72
2023/02/21 12:00:31;;;;;;;7.37;5.60;;;15.50;99.90;;;;;;4941176;28;20228;-72
2023/02/21 12:03:02;;;;;;;13.93;5.70;;;15.60;99.90;;;;;;4912494;29;20227;-72
2023/02/21 12:05:46;;;;;;;10.23;7.37;;;15.60;99.90;;;;;;4933135;28;20902;-72
2023/02/21 12:08:18;;;;;;;8.33;6.73;;;15.50;99.90;;;;;;4926539;28;20468;-71
2023/02/21 12:10:47;;;;;;;9.43;6.47;;;15.30;99.90;;;;;;4916516;29;20865;-72
2023/02/21 12:13:48;;;;;;;9.63;7.70;;;15.20;99.90;;;;;;4919801;29;20522;-72
2023/02/21 12:16:42;;;;;;;10.33;6.80;;;15.80;99.90;;;;;;4872433;29;20989;-71
2023/02/21 12:19:31;;;;;;;12.57;6.37;;;15.80;99.90;;;;;;4920751;29;21058;-72
2023/02/21 12:22:41;;;;;;;10.30;6.93;;;15.90;99.90;;;;;;4931522;29;20552;-73
2023/02/21 12:25:22;;;;;;;14.33;6.10;;;16.00;99.90;;;;;;4914988;29;20504;-73
2023/02/21 12:28:03;;;;;;;10.67;6.43;;;16.10;99.90;;;;;;4919886;28;20543;-73
2023/02/21 12:30:35;;;;;;;16.57;10.87;;;16.10;99.90;;;;;;4903217;29;20455;-72
2023/02/21 12:33:24;;;;;;;15.90;8.83;;;15.70;99.90;;;;;;4938032;28;20475;-71
2023/02/21 12:36:04;;;;;;;13.67;8.30;;;15.80;99.90;;;;;;4919601;29;20487;-72
2023/02/21 12:38:30;;;;;;;12.17;7.43;;;16.30;99.90;;;;;;4924749;29;20460;-72
2023/02/21 12:40:58;;;;;;;12.17;6.70;;;16.50;99.90;;;;;;4927174;29;20462;-72
2023/02/21 12:43:36;;;;;;;7.50;5.93;;;16.70;99.90;;;;;;4923479;28;20232;-73
2023/02/21 12:46:21;;;;;;;8.83;6.40;;;16.50;99.90;;;;;;4911794;29;21060;-72
2023/02/21 12:49:05;;;;;;;10.67;8.20;;;16.60;99.90;;;;;;4922467;29;21049;-71
2023/02/21 12:51:42;;;;;;;9.77;6.60;;;16.70;99.90;;;;;;4916511;29;20463;-72
2023/02/21 12:54:15;;;;;;;13.20;7.50;;;16.50;99.90;;;;;;4922161;28;20471;-72
2023/02/21 12:56:48;;;;;;;10.23;7.23;;;16.30;99.90;;;;;;4942817;28;20459;-71
2023/02/21 12:59:27;;;;;;;14.60;8.00;;;16.40;99.90;;;;;;4918326;29;20480;-72
2023/02/21 13:02:00;;;;;;;13.20;8.67;;;16.50;99.90;;;;;;4925245;29;20469;-73
2023/02/21 13:04:48;;;;;;;10.43;7.43;;;17.20;99.90;;;;;;4907727;29;20480;-71
2023/02/21 13:07:31;;;;;;;10.83;7.63;;;17.20;99.90;;;;;;4932963;28;20475;-72
2023/02/21 13:10:06;;;;;;;8.43;7.10;;;16.90;99.90;;;;;;4939740;28;21204;-72
2023/02/21 13:12:46;;;;;;;11.40;8.10;;;16.90;99.90;;;;;;4942359;28;20448;-73
2023/02/21 13:15:19;;;;;;;9.97;7.13;;;16.90;99.90;;;;;;4925841;28;20456;-72
2023/02/21 13:17:56;;;;;;;10.17;7.13;;;16.80;99.90;;;;;;4921609;29;20532;-72
2023/02/21 13:20:25;;;;;;;9.17;7.00;;;16.90;99.90;;;;;;4924275;28;20473;-72
2023/02/21 13:26:31;;;;;;;9.87;6.40;;;16.40;99.90;;;;;;4922017;28;20461;-73
2023/02/21 13:28:58;;;;;;;12.40;6.70;;;16.60;99.90;;;;;;4920133;29;20465;-72
2023/02/21 13:31:37;;;;;;;9.80;6.57;;;16.90;99.90;;;;;;4907886;28;20507;-72
2023/02/21 13:34:08;;;;;;;10.63;7.13;;;17.00;99.90;;;;;;4909052;29;20475;-72
2023/02/21 13:36:37;;;;;;;10.47;7.00;;;16.90;99.90;;;;;;4929757;29;20460;-73
2023/02/21 13:39:13;;;;;;;13.23;7.40;;;16.80;99.90;;;;;;4919398;29;20499;-72
2023/02/21 13:41:46;;;;;;;14.80;8.37;;;16.80;99.90;;;;;;4914927;29;20795;-72
2023/02/21 13:44:27;;;;;;;13.97;9.03;;;16.80;99.90;;;;;;4915228;28;20485;-72
2023/02/21 13:46:53;;;;;;;14.73;10.50;;;16.70;99.90;;;;;;4927123;28;20588;-71
2023/02/21 13:49:49;;;;;;;14.80;10.67;;;16.90;99.90;;;;;;4948643;28;20570;-72
2023/02/21 13:52:21;;;;;;;10.80;8.97;;;17.10;99.90;;;;;;4917466;28;20475;-72
2023/02/21 13:55:12;;;;;;;12.80;8.33;;;17.10;99.90;;;;;;4945062;28;20499;-73
2023/02/21 13:57:41;;;;;;;13.33;8.53;;;17.10;99.90;;;;;;4913339;29;20463;-72
2023/02/21 14:00:28;;;;;;;11.87;9.00;;;17.00;99.90;;;;;;4914384;29;20480;-72
2023/02/21 14:02:58;;;;;;;12.57;9.77;;;16.90;99.90;;;;;;4907154;29;21064;-72
2023/02/21 14:05:26;;;;;;;11.43;7.30;;;17.00;99.90;;;;;;4903606;28;20472;-73
2023/02/21 14:08:01;;;;;;;10.20;7.20;;;16.90;99.90;;;;;;4896160;29;20481;-72
2023/02/21 14:10:47;;;;;;;10.17;7.43;;;16.90;99.90;;;;;;4916268;28;20491;-71
2023/02/21 14:13:33;;;;;;;9.80;6.40;;;16.70;99.90;;;;;;4917609;28;20479;-72
2023/02/21 14:16:15;;;;;;;9.33;7.20;;;16.70;99.90;;;;;;4917250;29;20488;-72
2023/02/21 14:18:53;;;;;;;9.87;7.93;;;16.60;99.90;;;;;;4916919;29;20535;-71
2023/02/21 14:21:26;;;;;;;10.07;7.70;;;16.50;99.90;;;;;;4916623;28;20461;-72
2023/02/21 14:23:58;;;;;;;8.20;6.60;;;16.50;99.90;;;;;;4922148;28;20523;-72
2023/02/21 14:26:41;;;;;;;8.83;7.00;;;16.40;99.90;;;;;;4917051;28;20473;-71
2023/02/21 14:29:07;;;;;;;7.83;6.00;;;16.70;99.90;;;;;;4919291;28;20908;-70
2023/02/21 14:31:52;;;;;;;8.93;7.00;;;17.00;99.90;;;;;;4923685;29;20452;-74
2023/02/21 14:34:46;;;;;;;14.10;7.00;;;16.90;99.90;;;;;;4911306;29;20217;-73
2023/02/21 14:38:03;;;;;;;14.17;12.13;;;16.60;99.90;;;;;;4922249;28;20555;-72
2023/02/21 14:40:32;;;;;;;10.77;9.60;;;16.70;99.90;;;;;;4898228;29;20467;-72
2023/02/21 14:43:15;;;;;;;12.87;10.20;;;16.90;99.90;;;;;;4919046;29;20935;-72
2023/02/21 14:45:50;;;;;;;17.23;9.93;;;16.80;99.90;;;;;;4909404;28;20455;-72
2023/02/21 14:48:39;;;;;;;13.17;10.50;;;16.60;99.90;;;;;;4912847;29;20492;-73
2023/02/21 14:51:39;;;;;;;10.30;9.30;;;16.50;99.90;;;;;;4912797;29;20469;-72
2023/02/21 14:54:25;;;;;;;10.57;8.17;;;16.50;99.90;;;;;;4931793;28;20558;-73
2023/02/21 14:57:22;;;;;;;8.30;7.50;;;16.60;99.90;;;;;;4937181;28;20477;-71
2023/02/21 14:59:50;;;;;;;8.67;6.30;;;16.50;99.90;;;;;;4917698;28;20474;-75
2023/02/21 15:02:41;;;;;;;13.47;8.50;;;16.20;99.90;;;;;;4918135;28;20476;-73
2023/02/21 15:05:18;;;;;;;7.50;6.33;;;16.10;99.90;;;;;;4921112;29;20666;-72
2023/02/21 15:07:47;;;;;;;11.80;6.63;;;16.10;99.90;;;;;;4911589;29;20982;-72
2023/02/21 15:10:29;;;;;;;8.80;6.20;;;16.30;99.90;;;;;;4932762;28;20532;-73
2023/02/21 15:12:56;;;;;;;7.77;5.60;;;16.40;99.90;;;;;;4922147;29;20476;-72
2023/02/21 15:15:25;;;;;;;6.90;5.77;;;16.50;99.90;;;;;;4918218;28;20527;-72
2023/02/21 15:18:06;;;;;;;6.43;5.00;;;16.50;99.90;;;;;;4934830;28;20476;-72
2023/02/21 15:20:41;;;;;;;6.73;5.57;;;16.50;99.90;;;;;;4896529;29;20461;-72
2023/02/21 15:23:11;;;;;;;7.40;5.90;;;16.50;99.90;;;;;;4918581;28;20511;-73
2023/02/21 15:25:36;;;;;;;7.57;5.77;;;16.60;99.90;;;;;;4905452;29;20467;-73
2023/02/21 15:28:05;;;;;;;10.90;6.67;;;16.70;99.90;;;;;;4916282;28;20464;-72
2023/02/21 15:30:37;;;;;;;10.13;5.90;;;16.70;99.90;;;;;;4915794;28;20641;-72